CheckWX is a tool to help pilots better visualize weather data.  It is not intended as a substitute for an official pre-flight weather briefing.

21:01:45 UTC

KDPA METAR
Dupage Airport
Chicago/West Chicago, Illinois, USA
Current

10 mins ago

KDPA 232052Z 10007KT 2SM BR OVC005 02/01 A2975 RMK AO2 RAE45 SLP082 P0000 60001 T00220006 56046 $
Observed
Feb-23 @ 20:52 UTC
Wind
  • 100° at 7 KTS
Visibility
2 SM
Flight Rules
IFR
Conditions
Mist
Cloud Levels
  • Overcast at 500' AGL
Temperature
C / 36°F
Dewpoint
C / 34°F
Humidity
93%
Altimeter
29.75" Hg
Pressure
1008.2 hPa
Current Rain
0.01"
Previous

56 mins ago

KDPA 232006Z 10008KT 2SM -RA BR OVC006 02/01 A2977 RMK AO2 P0000 T00220006 $
Observed
Feb-23 @ 20:06 UTC
Wind
  • 100° at 8 KTS
Visibility
2 SM
Flight Rules
IFR
Conditions
Light Rain, Mist
Cloud Levels
  • Overcast at 600' AGL
Temperature
C / 36°F
Dewpoint
C / 34°F
Humidity
93%
Altimeter
29.77" Hg
Pressure
1008.12 hPa
Current Rain
0.01"
Previous

1 hour ago

KDPA 231952Z 09007KT 2SM -RA BR OVC006 02/01 A2979 RMK AO2 RAB1854E06B33 PRESFR SLP093 P0000 T00220006 $
Observed
Feb-23 @ 19:52 UTC
Wind
  • 090° at 7 KTS
Visibility
2 SM
Flight Rules
IFR
Conditions
Light Rain, Mist
Cloud Levels
  • Overcast at 600' AGL
Temperature
C / 36°F
Dewpoint
C / 34°F
Humidity
93%
Altimeter
29.79" Hg
Pressure
1009.3 hPa
Current Rain
0.01"